sensor_id;sensor_type;location;lat;lon;timestamp;P1;durP1;ratioP1;P2;durP2;ratioP2
78053;SDS011;67726;45.636;11.752;2023-05-27T00:00:04;13.33;;;6.83;;
78053;SDS011;67726;45.636;11.752;2023-05-27T00:02:31;14.07;;;6.65;;
78053;SDS011;67726;45.636;11.752;2023-05-27T00:04:57;13.80;;;6.55;;
78053;SDS011;67726;45.636;11.752;2023-05-27T00:07:22;12.23;;;6.40;;
78053;SDS011;67726;45.636;11.752;2023-05-27T00:09:48;13.43;;;6.18;;
78053;SDS011;67726;45.636;11.752;2023-05-27T00:12:14;11.53;;;5.00;;
78053;SDS011;67726;45.636;11.752;2023-05-27T05:37:54;15.30;;;9.48;;
78053;SDS011;67726;45.636;11.752;2023-05-27T05:40:21;19.17;;;9.65;;
78053;SDS011;67726;45.636;11.752;2023-05-27T05:42:48;15.63;;;9.43;;
78053;SDS011;67726;45.636;11.752;2023-05-27T05:45:13;16.60;;;9.88;;
78053;SDS011;67726;45.636;11.752;2023-05-27T05:47:39;18.23;;;9.90;;
78053;SDS011;67726;45.636;11.752;2023-05-27T05:50:05;15.57;;;9.40;;
78053;SDS011;67726;45.636;11.752;2023-05-27T05:52:31;16.30;;;9.05;;
78053;SDS011;67726;45.636;11.752;2023-05-27T05:54:57;16.87;;;9.67;;
78053;SDS011;67726;45.636;11.752;2023-05-27T05:57:22;15.75;;;9.52;;
78053;SDS011;67726;45.636;11.752;2023-05-27T05:59:48;18.40;;;9.70;;
78053;SDS011;67726;45.636;11.752;2023-05-27T06:02:13;13.97;;;9.17;;
78053;SDS011;67726;45.636;11.752;2023-05-27T06:04:39;16.10;;;9.40;;
78053;SDS011;67726;45.636;11.752;2023-05-27T06:07:05;16.05;;;8.98;;
78053;SDS011;67726;45.636;11.752;2023-05-27T06:09:31;15.40;;;8.53;;
78053;SDS011;67726;45.636;11.752;2023-05-27T06:11:56;15.40;;;8.43;;
78053;SDS011;67726;45.636;11.752;2023-05-27T06:14:22;13.73;;;8.50;;
78053;SDS011;67726;45.636;11.752;2023-05-27T06:16:47;14.40;;;7.97;;
78053;SDS011;67726;45.636;11.752;2023-05-27T06:19:13;12.18;;;8.07;;
78053;SDS011;67726;45.636;11.752;2023-05-27T06:21:39;11.90;;;7.50;;
78053;SDS011;67726;45.636;11.752;2023-05-27T06:24:05;11.10;;;7.25;;
78053;SDS011;67726;45.636;11.752;2023-05-27T06:29:06;12.30;;;6.70;;
78053;SDS011;67726;45.636;11.752;2023-05-27T06:31:31;14.43;;;6.80;;
78053;SDS011;67726;45.636;11.752;2023-05-27T06:33:58;17.75;;;7.63;;
78053;SDS011;67726;45.636;11.752;2023-05-27T06:36:24;12.23;;;6.67;;
78053;SDS011;67726;45.636;11.752;2023-05-27T06:38:50;10.68;;;6.38;;
78053;SDS011;67726;45.636;11.752;2023-05-27T06:41:16;9.95;;;6.40;;
78053;SDS011;67726;45.636;11.752;2023-05-27T06:43:42;13.00;;;6.20;;
78053;SDS011;67726;45.636;11.752;2023-05-27T06:46:07;11.23;;;5.88;;
78053;SDS011;67726;45.636;11.752;2023-05-27T06:48:33;11.53;;;6.60;;
78053;SDS011;67726;45.636;11.752;2023-05-27T06:50:59;12.15;;;6.05;;
78053;SDS011;67726;45.636;11.752;2023-05-27T06:53:25;10.47;;;5.73;;
78053;SDS011;67726;45.636;11.752;2023-05-27T06:55:50;10.10;;;6.17;;
78053;SDS011;67726;45.636;11.752;2023-05-27T06:58:16;10.00;;;5.88;;
78053;SDS011;67726;45.636;11.752;2023-05-27T07:00:42;9.73;;;5.83;;
78053;SDS011;67726;45.636;11.752;2023-05-27T07:03:07;8.33;;;4.80;;
78053;SDS011;67726;45.636;11.752;2023-05-27T07:05:33;9.35;;;5.53;;
78053;SDS011;67726;45.636;11.752;2023-05-27T07:07:59;10.50;;;4.70;;
78053;SDS011;67726;45.636;11.752;2023-05-27T07:10:24;10.90;;;5.32;;
78053;SDS011;67726;45.636;11.752;2023-05-27T07:12:50;8.10;;;4.68;;
78053;SDS011;67726;45.636;11.752;2023-05-27T07:15:16;9.43;;;5.20;;
78053;SDS011;67726;45.636;11.752;2023-05-27T07:17:42;9.95;;;5.07;;
78053;SDS011;67726;45.636;11.752;2023-05-27T07:20:08;9.20;;;4.93;;
78053;SDS011;67726;45.636;11.752;2023-05-27T07:22:34;9.10;;;5.15;;
78053;SDS011;67726;45.636;11.752;2023-05-27T07:25:00;10.27;;;5.50;;
78053;SDS011;67726;45.636;11.752;2023-05-27T07:27:25;11.68;;;5.20;;
78053;SDS011;67726;45.636;11.752;2023-05-27T07:29:51;9.57;;;5.20;;
78053;SDS011;67726;45.636;11.752;2023-05-27T07:32:17;11.63;;;5.80;;
78053;SDS011;67726;45.636;11.752;2023-05-27T07:34:42;9.40;;;5.37;;
78053;SDS011;67726;45.636;11.752;2023-05-27T07:37:08;9.40;;;5.22;;
78053;SDS011;67726;45.636;11.752;2023-05-27T07:39:34;9.97;;;5.50;;
78053;SDS011;67726;45.636;11.752;2023-05-27T07:41:59;9.13;;;5.30;;
78053;SDS011;67726;45.636;11.752;2023-05-27T07:44:25;9.03;;;5.50;;
78053;SDS011;67726;45.636;11.752;2023-05-27T07:46:53;10.88;;;5.50;;
78053;SDS011;67726;45.636;11.752;2023-05-27T07:49:18;17.38;;;5.97;;
78053;SDS011;67726;45.636;11.752;2023-05-27T07:51:44;9.70;;;5.30;;
78053;SDS011;67726;45.636;11.752;2023-05-27T07:54:10;9.63;;;5.40;;
78053;SDS011;67726;45.636;11.752;2023-05-27T07:56:35;9.40;;;5.87;;
78053;SDS011;67726;45.636;11.752;2023-05-27T07:59:01;9.90;;;5.38;;
78053;SDS011;67726;45.636;11.752;2023-05-27T08:01:27;10.03;;;5.40;;
78053;SDS011;67726;45.636;11.752;2023-05-27T08:03:57;9.95;;;5.82;;
78053;SDS011;67726;45.636;11.752;2023-05-27T08:06:23;10.48;;;6.00;;
78053;SDS011;67726;45.636;11.752;2023-05-27T08:08:49;9.00;;;5.50;;
78053;SDS011;67726;45.636;11.752;2023-05-27T08:11:14;8.50;;;5.30;;
78053;SDS011;67726;45.636;11.752;2023-05-27T08:13:40;10.10;;;5.40;;
78053;SDS011;67726;45.636;11.752;2023-05-27T08:16:07;9.23;;;5.63;;
78053;SDS011;67726;45.636;11.752;2023-05-27T08:18:34;12.35;;;5.82;;
78053;SDS011;67726;45.636;11.752;2023-05-27T08:21:00;9.88;;;6.40;;
78053;SDS011;67726;45.636;11.752;2023-05-27T08:23:26;10.27;;;5.30;;
78053;SDS011;67726;45.636;11.752;2023-05-27T08:25:52;10.05;;;5.70;;
78053;SDS011;67726;45.636;11.752;2023-05-27T08:28:17;10.43;;;5.60;;
78053;SDS011;67726;45.636;11.752;2023-05-27T08:30:43;10.43;;;6.10;;
78053;SDS011;67726;45.636;11.752;2023-05-27T08:33:08;8.90;;;5.57;;
78053;SDS011;67726;45.636;11.752;2023-05-27T08:35:34;11.27;;;6.00;;
78053;SDS011;67726;45.636;11.752;2023-05-27T08:38:00;9.20;;;6.07;;
78053;SDS011;67726;45.636;11.752;2023-05-27T08:40:26;10.00;;;5.90;;
78053;SDS011;67726;45.636;11.752;2023-05-27T08:42:52;10.73;;;5.80;;
78053;SDS011;67726;45.636;11.752;2023-05-27T08:45:18;11.45;;;6.40;;
78053;SDS011;67726;45.636;11.752;2023-05-27T08:47:43;11.40;;;6.83;;
78053;SDS011;67726;45.636;11.752;2023-05-27T08:50:09;10.88;;;7.00;;
78053;SDS011;67726;45.636;11.752;2023-05-27T08:52:38;9.43;;;5.90;;
78053;SDS011;67726;45.636;11.752;2023-05-27T08:55:11;12.13;;;6.40;;
78053;SDS011;67726;45.636;11.752;2023-05-27T08:57:41;15.70;;;7.17;;
78053;SDS011;67726;45.636;11.752;2023-05-27T09:00:11;11.20;;;6.38;;
78053;SDS011;67726;45.636;11.752;2023-05-27T09:02:39;11.00;;;7.30;;
78053;SDS011;67726;45.636;11.752;2023-05-27T09:05:05;12.90;;;7.38;;
78053;SDS011;67726;45.636;11.752;2023-05-27T09:07:33;11.23;;;7.47;;
78053;SDS011;67726;45.636;11.752;2023-05-27T09:09:58;15.20;;;7.80;;
78053;SDS011;67726;45.636;11.752;2023-05-27T09:12:25;14.18;;;8.20;;
78053;SDS011;67726;45.636;11.752;2023-05-27T09:14:52;13.05;;;7.22;;
78053;SDS011;67726;45.636;11.752;2023-05-27T09:17:22;13.27;;;7.82;;
78053;SDS011;67726;45.636;11.752;2023-05-27T09:19:49;12.60;;;7.53;;
78053;SDS011;67726;45.636;11.752;2023-05-27T09:24:48;15.45;;;7.70;;
78053;SDS011;67726;45.636;11.752;2023-05-27T09:27:14;11.52;;;6.80;;
78053;SDS011;67726;45.636;11.752;2023-05-27T09:29:40;12.15;;;7.40;;
78053;SDS011;67726;45.636;11.752;2023-05-27T09:32:06;13.07;;;7.60;;
78053;SDS011;67726;45.636;11.752;2023-05-27T09:34:37;11.77;;;7.22;;
78053;SDS011;67726;45.636;11.752;2023-05-27T09:37:04;12.80;;;7.63;;
78053;SDS011;67726;45.636;11.752;2023-05-27T09:39:30;13.40;;;7.80;;
78053;SDS011;67726;45.636;11.752;2023-05-27T09:41:59;12.90;;;7.30;;
78053;SDS011;67726;45.636;11.752;2023-05-27T09:44:29;12.50;;;6.82;;
78053;SDS011;67726;45.636;11.752;2023-05-27T09:47:02;10.85;;;6.57;;
78053;SDS011;67726;45.636;11.752;2023-05-27T09:49:32;10.55;;;6.68;;
78053;SDS011;67726;45.636;11.752;2023-05-27T09:51:59;13.93;;;7.28;;
78053;SDS011;67726;45.636;11.752;2023-05-27T09:54:26;12.43;;;6.60;;
78053;SDS011;67726;45.636;11.752;2023-05-27T09:56:52;10.50;;;6.72;;
78053;SDS011;67726;45.636;11.752;2023-05-27T09:59:21;11.15;;;6.95;;
78053;SDS011;67726;45.636;11.752;2023-05-27T10:01:47;12.55;;;7.40;;
78053;SDS011;67726;45.636;11.752;2023-05-27T10:04:15;11.55;;;6.63;;
78053;SDS011;67726;45.636;11.752;2023-05-27T10:06:41;12.53;;;6.67;;
78053;SDS011;67726;45.636;11.752;2023-05-27T10:09:07;10.98;;;6.57;;
78053;SDS011;67726;45.636;11.752;2023-05-27T10:11:33;11.43;;;6.28;;
78053;SDS011;67726;45.636;11.752;2023-05-27T10:14:04;12.07;;;5.90;;
78053;SDS011;67726;45.636;11.752;2023-05-27T10:16:30;10.47;;;6.00;;
78053;SDS011;67726;45.636;11.752;2023-05-27T10:18:56;10.85;;;5.82;;
78053;SDS011;67726;45.636;11.752;2023-05-27T10:21:23;10.63;;;5.82;;
78053;SDS011;67726;45.636;11.752;2023-05-27T10:24:13;10.82;;;5.97;;
78053;SDS011;67726;45.636;11.752;2023-05-27T10:26:41;11.40;;;7.30;;
78053;SDS011;67726;45.636;11.752;2023-05-27T10:29:12;10.30;;;6.47;;
78053;SDS011;67726;45.636;11.752;2023-05-27T10:31:49;9.95;;;5.63;;
78053;SDS011;67726;45.636;11.752;2023-05-27T10:34:15;12.30;;;6.00;;
78053;SDS011;67726;45.636;11.752;2023-05-27T10:36:43;11.02;;;6.38;;
78053;SDS011;67726;45.636;11.752;2023-05-27T10:39:14;12.00;;;6.70;;
78053;SDS011;67726;45.636;11.752;2023-05-27T10:47:10;10.30;;;6.18;;
78053;SDS011;67726;45.636;11.752;2023-05-27T10:49:46;11.98;;;6.45;;
78053;SDS011;67726;45.636;11.752;2023-05-27T10:52:13;10.75;;;6.40;;
78053;SDS011;67726;45.636;11.752;2023-05-27T10:54:42;9.73;;;5.80;;
78053;SDS011;67726;45.636;11.752;2023-05-27T10:57:10;10.27;;;5.60;;
78053;SDS011;67726;45.636;11.752;2023-05-27T10:59:40;9.45;;;5.50;;
78053;SDS011;67726;45.636;11.752;2023-05-27T11:02:11;9.60;;;5.30;;
78053;SDS011;67726;45.636;11.752;2023-05-27T11:04:36;9.75;;;5.40;;
78053;SDS011;67726;45.636;11.752;2023-05-27T11:07:03;10.70;;;5.88;;
78053;SDS011;67726;45.636;11.752;2023-05-27T11:09:29;10.52;;;6.00;;
78053;SDS011;67726;45.636;11.752;2023-05-27T11:11:55;10.75;;;6.35;;
78053;SDS011;67726;45.636;11.752;2023-05-27T11:14:22;9.03;;;5.53;;
78053;SDS011;67726;45.636;11.752;2023-05-27T11:16:48;11.63;;;7.20;;
78053;SDS011;67726;45.636;11.752;2023-05-27T11:19:16;9.90;;;6.10;;
78053;SDS011;67726;45.636;11.752;2023-05-27T11:21:46;10.70;;;5.97;;
78053;SDS011;67726;45.636;11.752;2023-05-27T11:24:15;11.82;;;6.45;;
78053;SDS011;67726;45.636;11.752;2023-05-27T11:26:42;10.77;;;5.90;;
78053;SDS011;67726;45.636;11.752;2023-05-27T11:29:11;11.48;;;7.22;;
78053;SDS011;67726;45.636;11.752;2023-05-27T11:31:37;12.27;;;6.18;;
78053;SDS011;67726;45.636;11.752;2023-05-27T11:34:16;11.38;;;6.43;;
78053;SDS011;67726;45.636;11.752;2023-05-27T11:36:45;10.98;;;5.80;;
78053;SDS011;67726;45.636;11.752;2023-05-27T11:39:14;11.17;;;6.30;;
78053;SDS011;67726;45.636;11.752;2023-05-27T11:41:49;9.63;;;6.18;;
78053;SDS011;67726;45.636;11.752;2023-05-27T11:44:16;11.60;;;6.32;;
78053;SDS011;67726;45.636;11.752;2023-05-27T11:46:42;10.57;;;6.00;;
78053;SDS011;67726;45.636;11.752;2023-05-27T11:49:11;11.95;;;5.45;;
78053;SDS011;67726;45.636;11.752;2023-05-27T11:51:42;8.57;;;5.17;;
78053;SDS011;67726;45.636;11.752;2023-05-27T11:54:16;11.75;;;5.70;;
78053;SDS011;67726;45.636;11.752;2023-05-27T11:56:44;10.15;;;5.88;;
78053;SDS011;67726;45.636;11.752;2023-05-27T11:59:10;8.73;;;4.90;;
78053;SDS011;67726;45.636;11.752;2023-05-27T12:01:35;9.33;;;5.57;;
78053;SDS011;67726;45.636;11.752;2023-05-27T12:04:01;10.07;;;6.00;;
78053;SDS011;67726;45.636;11.752;2023-05-27T12:06:27;10.82;;;6.20;;
78053;SDS011;67726;45.636;11.752;2023-05-27T12:08:53;10.77;;;6.93;;
78053;SDS011;67726;45.636;11.752;2023-05-27T12:11:18;11.77;;;5.90;;
78053;SDS011;67726;45.636;11.752;2023-05-27T12:13:44;13.55;;;7.18;;
78053;SDS011;67726;45.636;11.752;2023-05-27T12:16:10;13.87;;;6.33;;
78053;SDS011;67726;45.636;11.752;2023-05-27T12:18:36;10.68;;;6.10;;
78053;SDS011;67726;45.636;11.752;2023-05-27T12:21:01;11.57;;;6.03;;
78053;SDS011;67726;45.636;11.752;2023-05-27T12:23:27;10.33;;;5.53;;
78053;SDS011;67726;45.636;11.752;2023-05-27T12:25:53;11.60;;;6.00;;
78053;SDS011;67726;45.636;11.752;2023-05-27T12:28:19;12.23;;;5.47;;
78053;SDS011;67726;45.636;11.752;2023-05-27T12:30:44;10.50;;;5.67;;
78053;SDS011;67726;45.636;11.752;2023-05-27T12:33:11;11.48;;;5.53;;
78053;SDS011;67726;45.636;11.752;2023-05-27T12:35:38;10.18;;;5.60;;
78053;SDS011;67726;45.636;11.752;2023-05-27T12:38:03;11.93;;;5.37;;
78053;SDS011;67726;45.636;11.752;2023-05-27T12:40:29;9.95;;;5.53;;
78053;SDS011;67726;45.636;11.752;2023-05-27T12:42:55;9.63;;;5.63;;
78053;SDS011;67726;45.636;11.752;2023-05-27T12:45:20;10.07;;;5.20;;
78053;SDS011;67726;45.636;11.752;2023-05-27T12:47:48;9.98;;;5.18;;
78053;SDS011;67726;45.636;11.752;2023-05-27T12:50:14;12.40;;;5.88;;
78053;SDS011;67726;45.636;11.752;2023-05-27T12:52:40;11.13;;;5.53;;
78053;SDS011;67726;45.636;11.752;2023-05-27T12:55:11;9.32;;;5.57;;
78053;SDS011;67726;45.636;11.752;2023-05-27T12:57:40;8.93;;;5.50;;
78053;SDS011;67726;45.636;11.752;2023-05-27T13:00:05;11.02;;;5.78;;
78053;SDS011;67726;45.636;11.752;2023-05-27T13:02:32;9.60;;;5.47;;
78053;SDS011;67726;45.636;11.752;2023-05-27T13:04:57;9.47;;;5.47;;
78053;SDS011;67726;45.636;11.752;2023-05-27T13:07:25;10.98;;;5.53;;
78053;SDS011;67726;45.636;11.752;2023-05-27T13:09:51;11.90;;;5.90;;
78053;SDS011;67726;45.636;11.752;2023-05-27T13:12:16;10.40;;;6.13;;
78053;SDS011;67726;45.636;11.752;2023-05-27T13:14:42;9.33;;;5.70;;
78053;SDS011;67726;45.636;11.752;2023-05-27T13:17:08;11.90;;;6.00;;
78053;SDS011;67726;45.636;11.752;2023-05-27T13:19:34;10.57;;;5.80;;
78053;SDS011;67726;45.636;11.752;2023-05-27T13:22:00;9.23;;;5.83;;
78053;SDS011;67726;45.636;11.752;2023-05-27T13:24:26;9.35;;;5.47;;
78053;SDS011;67726;45.636;11.752;2023-05-27T13:26:52;10.23;;;5.82;;
78053;SDS011;67726;45.636;11.752;2023-05-27T13:29:17;9.40;;;5.23;;
78053;SDS011;67726;45.636;11.752;2023-05-27T13:31:43;8.73;;;5.37;;
78053;SDS011;67726;45.636;11.752;2023-05-27T13:34:10;10.80;;;5.70;;
78053;SDS011;67726;45.636;11.752;2023-05-27T13:36:36;9.07;;;5.10;;
78053;SDS011;67726;45.636;11.752;2023-05-27T13:39:02;8.97;;;5.53;;
78053;SDS011;67726;45.636;11.752;2023-05-27T13:41:27;11.52;;;6.05;;
78053;SDS011;67726;45.636;11.752;2023-05-27T13:43:53;10.23;;;5.97;;
78053;SDS011;67726;45.636;11.752;2023-05-27T13:46:19;9.63;;;5.93;;
78053;SDS011;67726;45.636;11.752;2023-05-27T13:48:45;10.30;;;6.00;;
78053;SDS011;67726;45.636;11.752;2023-05-27T13:51:10;11.00;;;5.90;;
78053;SDS011;67726;45.636;11.752;2023-05-27T13:53:36;8.37;;;4.77;;
78053;SDS011;67726;45.636;11.752;2023-05-27T13:56:01;11.57;;;6.10;;
78053;SDS011;67726;45.636;11.752;2023-05-27T13:58:27;11.25;;;5.85;;
78053;SDS011;67726;45.636;11.752;2023-05-27T14:00:53;10.00;;;5.30;;
78053;SDS011;67726;45.636;11.752;2023-05-27T14:03:19;12.50;;;5.77;;
78053;SDS011;67726;45.636;11.752;2023-05-27T14:05:46;9.23;;;5.40;;
78053;SDS011;67726;45.636;11.752;2023-05-27T14:08:11;9.97;;;5.60;;
78053;SDS011;67726;45.636;11.752;2023-05-27T14:10:37;9.65;;;5.60;;
78053;SDS011;67726;45.636;11.752;2023-05-27T14:13:02;11.47;;;6.00;;
78053;SDS011;67726;45.636;11.752;2023-05-27T14:15:29;10.77;;;5.75;;
78053;SDS011;67726;45.636;11.752;2023-05-27T14:17:56;11.38;;;5.65;;
78053;SDS011;67726;45.636;11.752;2023-05-27T14:20:22;9.43;;;5.13;;
78053;SDS011;67726;45.636;11.752;2023-05-27T14:22:47;9.73;;;5.35;;
78053;SDS011;67726;45.636;11.752;2023-05-27T14:25:13;10.67;;;5.60;;
78053;SDS011;67726;45.636;11.752;2023-05-27T14:27:42;10.17;;;5.17;;
78053;SDS011;67726;45.636;11.752;2023-05-27T14:30:08;9.45;;;5.60;;
78053;SDS011;67726;45.636;11.752;2023-05-27T14:32:34;11.63;;;5.43;;
78053;SDS011;67726;45.636;11.752;2023-05-27T14:37:39;10.75;;;5.95;;
78053;SDS011;67726;45.636;11.752;2023-05-27T14:40:05;9.90;;;5.20;;
78053;SDS011;67726;45.636;11.752;2023-05-27T14:42:32;9.38;;;5.30;;
78053;SDS011;67726;45.636;11.752;2023-05-27T14:44:57;10.15;;;5.78;;
78053;SDS011;67726;45.636;11.752;2023-05-27T14:47:23;11.53;;;6.07;;
78053;SDS011;67726;45.636;11.752;2023-05-27T14:49:49;11.23;;;5.80;;
78053;SDS011;67726;45.636;11.752;2023-05-27T14:52:14;11.48;;;5.80;;
78053;SDS011;67726;45.636;11.752;2023-05-27T14:54:40;11.40;;;6.10;;
78053;SDS011;67726;45.636;11.752;2023-05-27T14:57:05;9.40;;;5.57;;
78053;SDS011;67726;45.636;11.752;2023-05-27T14:59:31;9.97;;;5.67;;
78053;SDS011;67726;45.636;11.752;2023-05-27T15:01:56;8.85;;;5.38;;
78053;SDS011;67726;45.636;11.752;2023-05-27T15:04:22;12.67;;;6.33;;
78053;SDS011;67726;45.636;11.752;2023-05-27T15:06:48;11.73;;;5.63;;
78053;SDS011;67726;45.636;11.752;2023-05-27T15:09:13;12.60;;;5.97;;
78053;SDS011;67726;45.636;11.752;2023-05-27T15:11:39;10.30;;;5.53;;
78053;SDS011;67726;45.636;11.752;2023-05-27T15:14:04;11.43;;;6.03;;
78053;SDS011;67726;45.636;11.752;2023-05-27T15:16:30;10.73;;;5.80;;
78053;SDS011;67726;45.636;11.752;2023-05-27T15:18:57;9.52;;;5.57;;
78053;SDS011;67726;45.636;11.752;2023-05-27T15:21:23;10.10;;;5.30;;
78053;SDS011;67726;45.636;11.752;2023-05-27T15:23:50;9.50;;;5.40;;
78053;SDS011;67726;45.636;11.752;2023-05-27T15:26:15;9.45;;;5.70;;
78053;SDS011;67726;45.636;11.752;2023-05-27T15:28:41;10.93;;;6.20;;
78053;SDS011;67726;45.636;11.752;2023-05-27T15:31:07;10.07;;;5.68;;
78053;SDS011;67726;45.636;11.752;2023-05-27T15:33:34;10.25;;;6.00;;
78053;SDS011;67726;45.636;11.752;2023-05-27T15:36:00;9.47;;;5.53;;
78053;SDS011;67726;45.636;11.752;2023-05-27T15:38:26;10.98;;;6.05;;
78053;SDS011;67726;45.636;11.752;2023-05-27T15:40:51;9.73;;;5.60;;
78053;SDS011;67726;45.636;11.752;2023-05-27T15:45:52;10.93;;;5.80;;
78053;SDS011;67726;45.636;11.752;2023-05-27T15:48:18;11.37;;;6.10;;
78053;SDS011;67726;45.636;11.752;2023-05-27T15:50:43;11.77;;;6.63;;
78053;SDS011;67726;45.636;11.752;2023-05-27T15:53:09;11.00;;;6.50;;
78053;SDS011;67726;45.636;11.752;2023-05-27T15:55:35;12.20;;;6.57;;
78053;SDS011;67726;45.636;11.752;2023-05-27T15:58:01;12.02;;;6.40;;
78053;SDS011;67726;45.636;11.752;2023-05-27T16:00:27;11.50;;;6.75;;
78053;SDS011;67726;45.636;11.752;2023-05-27T16:02:52;13.40;;;6.33;;
78053;SDS011;67726;45.636;11.752;2023-05-27T16:05:18;12.20;;;6.23;;
78053;SDS011;67726;45.636;11.752;2023-05-27T16:07:43;11.10;;;5.93;;
78053;SDS011;67726;45.636;11.752;2023-05-27T16:10:09;12.27;;;6.75;;
78053;SDS011;67726;45.636;11.752;2023-05-27T16:12:35;10.37;;;6.27;;
78053;SDS011;67726;45.636;11.752;2023-05-27T16:15:01;14.00;;;6.47;;
78053;SDS011;67726;45.636;11.752;2023-05-27T16:17:32;10.13;;;5.75;;
78053;SDS011;67726;45.636;11.752;2023-05-27T16:19:58;12.18;;;6.72;;
78053;SDS011;67726;45.636;11.752;2023-05-27T16:22:24;11.33;;;6.63;;
78053;SDS011;67726;45.636;11.752;2023-05-27T16:24:50;11.68;;;6.28;;
78053;SDS011;67726;45.636;11.752;2023-05-27T16:27:16;10.10;;;6.30;;
78053;SDS011;67726;45.636;11.752;2023-05-27T16:29:41;10.98;;;6.47;;
78053;SDS011;67726;45.636;11.752;2023-05-27T16:32:07;10.93;;;6.10;;
78053;SDS011;67726;45.636;11.752;2023-05-27T16:34:34;10.38;;;6.55;;
78053;SDS011;67726;45.636;11.752;2023-05-27T16:37:00;9.23;;;5.80;;
78053;SDS011;67726;45.636;11.752;2023-05-27T16:39:25;11.53;;;6.80;;
78053;SDS011;67726;45.636;11.752;2023-05-27T16:41:51;10.65;;;6.03;;
78053;SDS011;67726;45.636;11.752;2023-05-27T16:44:17;11.32;;;6.32;;
78053;SDS011;67726;45.636;11.752;2023-05-27T16:46:43;11.87;;;6.30;;
78053;SDS011;67726;45.636;11.752;2023-05-27T16:49:09;10.20;;;6.32;;
78053;SDS011;67726;45.636;11.752;2023-05-27T16:51:35;10.67;;;6.10;;
78053;SDS011;67726;45.636;11.752;2023-05-27T16:54:01;11.53;;;5.50;;
78053;SDS011;67726;45.636;11.752;2023-05-27T16:56:29;10.32;;;5.68;;
78053;SDS011;67726;45.636;11.752;2023-05-27T16:58:55;10.53;;;5.87;;
78053;SDS011;67726;45.636;11.752;2023-05-27T17:01:20;9.50;;;5.15;;
78053;SDS011;67726;45.636;11.752;2023-05-27T17:03:47;9.45;;;5.43;;
78053;SDS011;67726;45.636;11.752;2023-05-27T17:06:13;9.47;;;5.17;;
78053;SDS011;67726;45.636;11.752;2023-05-27T17:08:41;10.15;;;5.93;;
78053;SDS011;67726;45.636;11.752;2023-05-27T17:11:07;9.88;;;6.28;;
78053;SDS011;67726;45.636;11.752;2023-05-27T17:13:33;10.43;;;5.47;;
78053;SDS011;67726;45.636;11.752;2023-05-27T17:15:59;10.97;;;5.87;;
78053;SDS011;67726;45.636;11.752;2023-05-27T17:18:25;8.60;;;5.28;;
78053;SDS011;67726;45.636;11.752;2023-05-27T17:20:51;10.77;;;5.70;;
78053;SDS011;67726;45.636;11.752;2023-05-27T17:23:16;10.10;;;5.83;;
78053;SDS011;67726;45.636;11.752;2023-05-27T17:25:42;9.93;;;5.97;;
78053;SDS011;67726;45.636;11.752;2023-05-27T17:28:08;9.50;;;5.97;;
78053;SDS011;67726;45.636;11.752;2023-05-27T17:30:33;10.18;;;6.05;;
78053;SDS011;67726;45.636;11.752;2023-05-27T17:33:02;12.20;;;6.20;;
78053;SDS011;67726;45.636;11.752;2023-05-27T17:35:28;10.02;;;5.78;;
78053;SDS011;67726;45.636;11.752;2023-05-27T17:37:53;11.50;;;6.53;;
78053;SDS011;67726;45.636;11.752;2023-05-27T17:40:19;13.60;;;7.20;;
78053;SDS011;67726;45.636;11.752;2023-05-27T17:42:45;15.63;;;7.25;;
78053;SDS011;67726;45.636;11.752;2023-05-27T17:45:12;15.47;;;8.07;;
78053;SDS011;67726;45.636;11.752;2023-05-27T17:47:39;13.57;;;7.72;;
78053;SDS011;67726;45.636;11.752;2023-05-27T17:50:05;11.85;;;6.47;;
78053;SDS011;67726;45.636;11.752;2023-05-27T17:52:31;11.18;;;6.35;;
78053;SDS011;67726;45.636;11.752;2023-05-27T17:54:57;11.20;;;6.43;;
78053;SDS011;67726;45.636;11.752;2023-05-27T17:57:23;14.07;;;6.90;;
78053;SDS011;67726;45.636;11.752;2023-05-27T17:59:49;11.63;;;6.70;;
78053;SDS011;67726;45.636;11.752;2023-05-27T18:02:15;12.13;;;6.68;;
78053;SDS011;67726;45.636;11.752;2023-05-27T18:04:42;11.95;;;6.50;;
78053;SDS011;67726;45.636;11.752;2023-05-27T18:07:08;11.20;;;6.90;;
78053;SDS011;67726;45.636;11.752;2023-05-27T18:09:34;11.75;;;6.63;;
78053;SDS011;67726;45.636;11.752;2023-05-27T18:11:59;13.07;;;7.22;;
78053;SDS011;67726;45.636;11.752;2023-05-27T18:14:25;11.23;;;7.00;;
78053;SDS011;67726;45.636;11.752;2023-05-27T18:16:54;12.95;;;8.20;;
78053;SDS011;67726;45.636;11.752;2023-05-27T18:19:20;12.27;;;7.33;;
78053;SDS011;67726;45.636;11.752;2023-05-27T18:21:46;12.48;;;8.40;;
78053;SDS011;67726;45.636;11.752;2023-05-27T18:24:11;11.07;;;7.27;;
78053;SDS011;67726;45.636;11.752;2023-05-27T18:26:37;11.98;;;7.03;;
78053;SDS011;67726;45.636;11.752;2023-05-27T18:29:03;16.37;;;8.20;;
78053;SDS011;67726;45.636;11.752;2023-05-27T18:31:29;13.73;;;7.83;;
78053;SDS011;67726;45.636;11.752;2023-05-27T18:33:55;12.45;;;7.13;;
78053;SDS011;67726;45.636;11.752;2023-05-27T18:36:21;14.07;;;7.60;;
78053;SDS011;67726;45.636;11.752;2023-05-27T18:38:47;11.77;;;7.05;;
78053;SDS011;67726;45.636;11.752;2023-05-27T18:41:12;11.50;;;7.23;;
78053;SDS011;67726;45.636;11.752;2023-05-27T18:43:38;15.02;;;7.75;;
78053;SDS011;67726;45.636;11.752;2023-05-27T18:46:03;14.53;;;7.70;;
78053;SDS011;67726;45.636;11.752;2023-05-27T18:48:29;12.23;;;7.60;;
78053;SDS011;67726;45.636;11.752;2023-05-27T18:50:59;11.98;;;7.22;;
78053;SDS011;67726;45.636;11.752;2023-05-27T18:53:25;11.47;;;7.50;;
78053;SDS011;67726;45.636;11.752;2023-05-27T18:55:51;12.50;;;8.02;;
78053;SDS011;67726;45.636;11.752;2023-05-27T18:58:17;14.13;;;8.20;;
78053;SDS011;67726;45.636;11.752;2023-05-27T19:00:43;12.97;;;8.20;;
78053;SDS011;67726;45.636;11.752;2023-05-27T19:03:09;11.95;;;7.75;;
78053;SDS011;67726;45.636;11.752;2023-05-27T19:05:36;12.43;;;8.32;;
78053;SDS011;67726;45.636;11.752;2023-05-27T19:08:02;13.20;;;7.95;;
78053;SDS011;67726;45.636;11.752;2023-05-27T19:10:28;13.23;;;8.10;;
78053;SDS011;67726;45.636;11.752;2023-05-27T19:12:54;14.95;;;8.38;;
78053;SDS011;67726;45.636;11.752;2023-05-27T19:15:20;13.60;;;8.23;;
78053;SDS011;67726;45.636;11.752;2023-05-27T19:17:46;14.25;;;8.23;;
78053;SDS011;67726;45.636;11.752;2023-05-27T19:20:12;14.07;;;8.13;;
78053;SDS011;67726;45.636;11.752;2023-05-27T19:22:38;13.13;;;8.43;;
78053;SDS011;67726;45.636;11.752;2023-05-27T19:25:04;12.33;;;8.27;;
78053;SDS011;67726;45.636;11.752;2023-05-27T19:27:30;14.10;;;8.17;;
78053;SDS011;67726;45.636;11.752;2023-05-27T19:29:56;13.02;;;8.18;;
78053;SDS011;67726;45.636;11.752;2023-05-27T19:32:21;13.67;;;8.10;;
78053;SDS011;67726;45.636;11.752;2023-05-27T19:34:47;12.57;;;8.02;;
78053;SDS011;67726;45.636;11.752;2023-05-27T19:37:12;13.57;;;8.10;;
78053;SDS011;67726;45.636;11.752;2023-05-27T19:39:38;13.83;;;8.67;;
78053;SDS011;67726;45.636;11.752;2023-05-27T19:42:05;14.67;;;8.80;;
78053;SDS011;67726;45.636;11.752;2023-05-27T19:44:31;15.85;;;8.85;;
78053;SDS011;67726;45.636;11.752;2023-05-27T19:46:56;12.70;;;8.47;;
78053;SDS011;67726;45.636;11.752;2023-05-27T19:49:22;14.95;;;9.15;;
78053;SDS011;67726;45.636;11.752;2023-05-27T19:51:47;13.80;;;9.20;;
78053;SDS011;67726;45.636;11.752;2023-05-27T19:54:13;18.80;;;8.20;;
78053;SDS011;67726;45.636;11.752;2023-05-27T19:56:39;14.97;;;8.40;;